Time;durP1;ratioP1;P1;durP2;ratioP2;P2;SDS_P1;SDS_P2;PMS_P1;PMS_P2;Temp;Humidity;BMP_temperature;BMP_pressure;BME280_temperature;BME280_humidity;BME280_pressure;Samples;Min_cycle;Max_cycle;Signal;HPM_P1;HPM_P2
2022/12/23 00:01:29;;;;;;;36.97;11.20;;;;;;;18.27;60.17;100388.69;5111309;27;20020;-69
2022/12/23 00:03:58;;;;;;;29.80;9.77;;;;;;;17.08;61.96;100391.56;5113276;27;20486;-69
2022/12/23 00:06:24;;;;;;;36.00;9.30;;;;;;;17.93;60.16;100400.94;5110197;27;20113;-69
2022/12/23 00:08:56;;;;;;;30.53;8.90;;;;;;;17.69;59.60;100393.16;5110308;27;20071;-69
2022/12/23 00:11:22;;;;;;;;;;;;;;;17.41;63.14;100399.72;5099776;27;20137;-69
2022/12/23 00:16:35;;;;;;;40.50;11.17;;;;;;;17.89;60.55;100397.53;5130842;27;20671;-69
2022/12/23 00:19:00;;;;;;;29.30;9.20;;;;;;;18.50;58.44;100405.25;5111865;27;20099;-69
2022/12/23 00:21:25;;;;;;;50.50;11.00;;;;;;;17.97;59.79;100402.50;5130249;27;20715;-69
2022/12/23 00:23:51;;;;;;;36.97;10.87;;;;;;;18.03;59.30;100411.91;5129532;27;20042;-69
2022/12/23 00:26:20;;;;;;;44.93;10.97;;;;;;;18.59;56.44;100407.44;5110965;27;20080;-69
2022/12/23 00:28:45;;;;;;;32.80;10.93;;;;;;;17.87;62.22;100417.03;5130508;27;20030;-69
2022/12/23 00:31:12;;;;;;;40.50;10.73;;;;;;;18.58;58.64;100397.78;5131098;27;20023;-69
2022/12/23 00:33:42;;;;;;;33.57;9.83;;;;;;;16.88;64.05;100416.13;5130004;27;20159;-69
2022/12/23 00:36:17;;;;;;;38.77;11.80;;;;;;;18.96;56.27;100413.53;5111662;27;20019;-69
2022/12/23 00:44:11;;;;;;;37.33;11.33;;;;;;;18.86;58.39;100412.25;5132502;27;20401;-69
2022/12/23 00:46:36;;;;;;;31.47;10.40;;;;;;;18.48;56.67;100418.56;5111935;28;20023;-69
2022/12/23 00:51:46;;;;;;;31.40;10.83;;;;;;;18.38;55.54;100423.44;5132095;28;20098;-69
2022/12/23 00:54:11;;;;;;;34.60;11.43;;;;;;;18.81;55.47;100410.69;5131810;28;20447;-69
2022/12/23 00:56:37;;;;;;;46.60;13.00;;;;;;;17.84;58.83;100422.47;5130023;27;20034;-69
2022/12/23 00:59:03;;;;;;;35.20;11.00;;;;;;;17.95;60.69;100422.84;5112483;28;20042;-69
2022/12/23 01:06:59;;;;;;;39.10;11.60;;;;;;;18.54;57.40;100430.63;5130219;27;20038;-69
2022/12/23 01:09:25;;;;;;;40.27;11.90;;;;;;;18.05;57.56;100437.38;5131637;27;20471;-69
2022/12/23 01:11:50;;;;;;;33.33;10.67;;;;;;;18.02;58.22;100431.34;5116234;27;20110;-69
2022/12/23 01:14:16;;;;;;;41.00;10.83;;;;;;;18.64;57.01;100440.66;5116453;27;20194;-69
2022/12/23 01:16:42;;;;;;;38.03;12.70;;;;;;;19.15;54.54;100431.94;5130457;27;20181;-69
2022/12/23 01:19:07;;;;;;;44.53;12.90;;;;;;;18.35;56.62;100436.78;5115639;27;20023;-69
2022/12/23 01:21:33;;;;;;;36.17;11.83;;;;;;;17.43;60.21;100434.88;5116293;27;20023;-68
2022/12/23 01:23:59;;;;;;;56.10;13.17;;;;;;;17.38;62.16;100439.50;5133428;27;20517;-69
2022/12/23 01:26:24;;;;;;;51.07;14.00;;;;;;;17.71;60.34;100441.53;5115160;27;20042;-69
2022/12/23 01:28:56;;;;;;;46.77;14.00;;;;;;;17.95;58.33;100446.66;5115062;27;20398;-69
2022/12/23 01:31:23;;;;;;;49.35;12.80;;;;;;;17.93;61.08;100453.81;5115273;27;20035;-69
2022/12/23 01:33:50;;;;;;;58.17;14.43;;;;;;;18.12;58.80;100449.34;5115697;27;20031;-69
2022/12/23 01:36:15;;;;;;;40.40;14.00;;;;;;;18.37;56.80;100460.53;5134340;27;20083;-69
2022/12/23 01:38:41;;;;;;;49.73;14.60;;;;;;;19.25;54.30;100456.19;5132806;27;20031;-69
2022/12/23 01:41:06;;;;;;;53.70;14.57;;;;;;;18.23;57.76;100467.38;5116110;27;20023;-69
2022/12/23 01:43:50;;;;;;;40.67;14.03;;;;;;;18.53;57.77;100468.59;5134198;27;20069;-69
2022/12/23 01:46:15;;;;;;;48.97;14.97;;;;;;;18.02;57.68;100482.44;5132431;27;20076;-69
2022/12/23 01:48:46;;;;;;;43.77;15.00;;;;;;;17.33;60.89;100486.41;5131603;27;20019;-69
2022/12/23 01:51:22;;;;;;;47.83;15.23;;;;;;;19.40;53.95;100488.94;5134196;27;20023;-69
2022/12/23 01:53:52;;;;;;;49.93;14.93;;;;;;;18.97;53.76;100505.25;5133502;27;20386;-69
2022/12/23 01:56:36;;;;;;;48.63;14.77;;;;;;;19.04;53.95;100506.69;5131677;27;20031;-69
2022/12/23 02:03:40;;;;;;;49.97;16.20;;;;;;;20.14;50.27;100493.84;5111434;27;20062;-69
2022/12/23 02:04:42;;;;;;;44.47;14.10;;;;;;;19.90;51.73;100500.50;5133954;27;20050;-69
2022/12/23 02:09:51;;;;;;;44.30;15.07;;;;;;;19.90;50.47;100511.09;5134192;27;20076;-69
2022/12/23 02:12:50;;;;;;;42.30;13.03;;;;;;;19.13;52.10;100521.25;5134668;27;20031;-69
2022/12/23 02:18:39;;;;;;;28.60;10.67;;;;;;;19.08;52.80;100526.78;5129696;27;20091;-69
2022/12/23 02:21:04;;;;;;;29.27;9.80;;;;;;;18.88;53.11;100521.63;5113792;27;20030;-69
2022/12/23 02:23:42;;;;;;;24.07;9.83;;;;;;;18.61;53.66;100527.28;5113906;27;20490;-69
2022/12/23 02:26:31;;;;;;;26.70;9.63;;;;;;;19.54;51.74;100526.19;5102810;27;20035;-69
2022/12/23 02:29:19;;;;;;;22.37;8.70;;;;;;;18.50;53.56;100548.13;5110750;27;20039;-69
2022/12/23 02:32:01;;;;;;;18.23;9.30;;;;;;;19.31;50.85;100541.47;5114443;27;20444;-69
2022/12/23 02:34:53;;;;;;;19.88;8.18;;;;;;;18.97;53.24;100550.28;5133268;27;20227;-69
2022/12/23 02:37:36;;;;;;;14.40;8.43;;;;;;;19.34;52.29;100561.69;5131623;27;20031;-69
2022/12/23 02:40:20;;;;;;;19.13;8.50;;;;;;;19.01;53.21;100557.13;5114476;27;20041;-69
2022/12/23 02:43:05;;;;;;;24.13;9.77;;;;;;;19.10;53.29;100564.63;5100004;27;20038;-69
2022/12/23 02:45:40;;;;;;;16.17;9.53;;;;;;;18.49;54.54;100568.44;5132968;27;20027;-69
2022/12/23 02:48:38;;;;;;;20.50;10.27;;;;;;;19.26;51.58;100569.16;5130662;27;20027;-69
2022/12/23 02:51:06;;;;;;;20.40;11.43;;;;;;;19.04;53.48;100572.91;5058212;28;20043;-69
2022/12/23 02:53:40;;;;;;;25.63;13.50;;;;;;;19.27;52.82;100569.06;5114795;27;20038;-69
2022/12/23 02:56:09;;;;;;;24.83;13.30;;;;;;;18.73;53.08;100563.75;5112783;27;20030;-69
2022/12/23 02:58:41;;;;;;;21.57;12.97;;;;;;;19.23;52.44;100569.31;5108522;27;20383;-69
2022/12/23 03:01:10;;;;;;;22.08;14.40;;;;;;;19.22;50.94;100570.25;5100540;27;20209;-69
2022/12/23 03:03:36;;;;;;;22.27;13.97;;;;;;;19.50;51.33;100572.34;5131231;27;20048;-69
2022/12/23 03:06:13;;;;;;;25.23;14.93;;;;;;;20.12;50.02;100554.06;5130627;27;20061;-69
2022/12/23 03:08:42;;;;;;;23.20;14.73;;;;;;;19.64;51.08;100547.78;5132089;27;20035;-69
2022/12/23 03:11:14;;;;;;;24.13;15.13;;;;;;;19.54;49.80;100563.31;5129917;27;20390;-69
2022/12/23 03:13:42;;;;;;;25.93;15.20;;;;;;;20.25;48.51;100553.41;5114024;27;20034;-69
2022/12/23 03:16:27;;;;;;;23.70;14.47;;;;;;;20.54;48.34;100558.88;5130676;27;20482;-69
2022/12/23 03:19:10;;;;;;;22.60;15.17;;;;;;;19.86;49.09;100554.63;5114289;27;20031;-69
2022/12/23 03:21:49;;;;;;;21.33;13.60;;;;;;;20.45;48.17;100552.31;5131326;27;20038;-69
2022/12/23 03:24:39;;;;;;;28.27;15.63;;;;;;;19.87;48.89;100553.72;5108445;27;20649;-69
2022/12/23 03:27:32;;;;;;;22.33;14.00;;;;;;;19.46;49.61;100554.91;5109872;27;20512;-69
2022/12/23 03:30:13;;;;;;;27.13;15.27;;;;;;;19.13;51.09;100559.19;5111684;27;20039;-69
2022/12/23 03:32:45;;;;;;;26.23;14.83;;;;;;;19.85;50.41;100555.56;5104169;28;20043;-69
2022/12/23 03:35:14;;;;;;;32.60;13.73;;;;;;;20.59;47.83;100552.38;5111003;27;20186;-69
2022/12/23 03:37:45;;;;;;;27.83;14.63;;;;;;;20.10;48.75;100555.97;5107133;27;20035;-69
2022/12/23 03:40:14;;;;;;;27.50;12.60;;;;;;;20.41;48.64;100562.22;5129830;27;20054;-69
2022/12/23 03:42:43;;;;;;;27.07;12.40;;;;;;;20.86;47.31;100551.78;5114141;27;20039;-69
2022/12/23 03:45:28;;;;;;;24.47;11.83;;;;;;;21.08;46.95;100548.75;5129105;27;20063;-69
2022/12/23 03:47:58;;;;;;;19.37;11.27;;;;;;;20.80;46.90;100560.97;5113556;27;20025;-69
2022/12/23 03:50:24;;;;;;;17.57;10.70;;;;;;;21.14;46.25;100563.47;5112732;27;20035;-69
2022/12/23 03:53:12;;;;;;;28.47;14.93;;;;;;;20.67;46.70;100558.09;5111070;27;20338;-69
2022/12/23 03:55:44;;;;;;;25.13;14.33;;;;;;;20.69;47.29;100563.38;5127257;27;20049;-69
2022/12/23 03:58:34;;;;;;;25.33;13.57;;;;;;;20.58;47.19;100581.66;5109819;27;20027;-69
2022/12/23 04:01:12;;;;;;;28.07;14.37;;;;;;;21.20;46.06;100573.75;5131642;27;20798;-69
2022/12/23 04:03:47;;;;;;;23.73;14.63;;;;;;;21.33;45.35;100585.34;5109968;27;20433;-69
2022/12/23 04:06:16;;;;;;;20.97;12.27;;;;;;;20.18;47.31;100584.72;5110843;27;20034;-69
2022/12/23 04:08:44;;;;;;;19.70;12.23;;;;;;;20.49;47.05;100589.22;5131113;27;20454;-69
2022/12/23 04:11:11;;;;;;;20.87;11.40;;;;;;;20.32;46.67;100597.25;5112701;27;20117;-69
2022/12/23 04:13:37;;;;;;;18.70;11.17;;;;;;;19.70;48.35;100603.16;5110710;27;20023;-69
2022/12/23 04:16:03;;;;;;;18.87;11.40;;;;;;;20.14;48.12;100593.78;5128115;27;20038;-69
2022/12/23 04:18:29;;;;;;;17.00;10.87;;;;;;;20.36;46.99;100588.19;5111395;27;20027;-69
2022/12/23 04:20:54;;;;;;;21.57;11.47;;;;;;;20.45;46.90;100589.47;5111257;27;20019;-69
2022/12/23 04:23:19;;;;;;;22.00;11.73;;;;;;;20.04;48.61;100604.03;5111149;27;20034;-69
2022/12/23 04:25:45;;;;;;;18.03;10.50;;;;;;;20.16;47.82;100608.69;5130326;27;20095;-69
2022/12/23 04:28:10;;;;;;;19.23;11.37;;;;;;;20.55;47.25;100598.63;5111311;28;20030;-69
2022/12/23 04:30:35;;;;;;;20.13;11.43;;;;;;;20.90;45.91;100603.81;5110796;27;20028;-69
2022/12/23 04:33:02;;;;;;;22.97;10.63;;;;;;;19.90;48.01;100596.81;5129433;27;20513;-69
2022/12/23 04:35:27;;;;;;;21.73;10.00;;;;;;;20.39;47.06;100588.00;5130343;27;20023;-68
2022/12/23 04:37:52;;;;;;;17.03;10.37;;;;;;;20.50;46.75;100585.63;5129956;27;20019;-69
2022/12/23 04:40:18;;;;;;;19.27;9.90;;;;;;;19.60;47.83;100588.63;5112591;27;20038;-69
2022/12/23 04:42:43;;;;;;;15.50;9.27;;;;;;;19.67;47.95;100579.44;5130435;27;20104;-69
2022/12/23 04:45:11;;;;;;;18.07;10.13;;;;;;;20.24;46.84;100575.59;5111760;27;20031;-69
2022/12/23 04:47:37;;;;;;;15.67;9.20;;;;;;;20.54;46.53;100577.47;5130973;27;20031;-69
2022/12/23 04:50:03;;;;;;;15.40;8.73;;;;;;;20.51;46.22;100571.41;5109686;28;20075;-69
2022/12/23 04:52:29;;;;;;;15.30;9.60;;;;;;;20.80;46.15;100570.72;5129797;28;20045;-69
2022/12/23 04:54:54;;;;;;;14.30;9.27;;;;;;;20.67;46.35;100573.19;5111277;28;20015;-69
2022/12/23 04:57:19;;;;;;;13.33;8.83;;;;;;;20.82;45.83;100575.00;5111820;28;20077;-69
2022/12/23 04:59:45;;;;;;;21.43;11.70;;;;;;;20.81;46.02;100573.31;5112493;28;20038;-69
2022/12/23 05:02:10;;;;;;;18.93;10.77;;;;;;;20.53;45.82;100584.59;5111607;28;20438;-69
2022/12/23 05:04:36;;;;;;;13.97;9.67;;;;;;;20.69;45.82;100576.66;5109685;28;20099;-69
2022/12/23 05:07:01;;;;;;;16.97;10.37;;;;;;;20.83;45.73;100582.03;5111086;28;20027;-69
2022/12/23 05:09:26;;;;;;;14.40;9.40;;;;;;;20.35;46.92;100583.81;5129020;28;20027;-69
2022/12/23 05:11:52;;;;;;;20.40;11.00;;;;;;;20.13;46.48;100592.94;5113056;28;20027;-69
2022/12/23 05:14:17;;;;;;;19.53;11.07;;;;;;;20.08;46.20;100594.97;5129190;27;20053;-69
2022/12/23 05:16:42;;;;;;;19.77;10.97;;;;;;;20.25;46.76;100609.13;5129503;28;20143;-69
2022/12/23 05:19:09;;;;;;;19.83;11.33;;;;;;;20.49;45.67;100605.13;5130717;28;20028;-69
2022/12/23 05:21:34;;;;;;;16.80;10.33;;;;;;;20.37;46.41;100620.88;5128799;28;20023;-69
2022/12/23 05:23:59;;;;;;;18.57;10.97;;;;;;;20.80;45.75;100614.09;5110627;28;20065;-69
2022/12/23 05:26:25;;;;;;;17.37;11.27;;;;;;;20.29;47.06;100618.63;5129510;27;20084;-69
2022/12/23 05:28:50;;;;;;;20.10;10.90;;;;;;;20.60;45.85;100622.28;5111957;28;20029;-69
2022/12/23 05:31:16;;;;;;;20.50;11.03;;;;;;;20.49;46.54;100621.06;5129529;28;20034;-69
2022/12/23 05:33:41;;;;;;;21.47;12.10;;;;;;;20.58;46.62;100629.47;5110799;28;20083;-69
2022/12/23 05:36:08;;;;;;;19.63;10.63;;;;;;;20.81;46.10;100625.56;5112260;28;20504;-69
2022/12/23 05:38:33;;;;;;;19.73;11.17;;;;;;;21.14;45.43;100625.47;5129374;28;20470;-69
2022/12/23 05:40:58;;;;;;;18.50;10.97;;;;;;;20.72;46.47;100616.31;5112245;28;20051;-69
2022/12/23 05:43:24;;;;;;;17.00;11.60;;;;;;;20.61;46.91;100613.38;5111620;27;20084;-69
2022/12/23 05:45:50;;;;;;;20.20;11.87;;;;;;;20.64;46.87;100615.88;5129275;28;20106;-69
2022/12/23 05:48:16;;;;;;;19.70;12.57;;;;;;;20.58;47.10;100613.53;5110840;28;20118;-69
2022/12/23 05:50:41;;;;;;;20.80;12.50;;;;;;;20.75;46.87;100621.44;5106219;28;20427;-69
2022/12/23 05:53:07;;;;;;;22.77;12.27;;;;;;;20.59;46.97;100609.94;5129374;28;20118;-69
2022/12/23 05:55:33;;;;;;;20.83;12.00;;;;;;;20.50;47.10;100601.53;5129222;27;20104;-69
2022/12/23 05:57:58;;;;;;;21.37;12.23;;;;;;;20.70;46.82;100596.94;5114338;27;20046;-69
2022/12/23 06:00:23;;;;;;;28.27;13.93;;;;;;;20.20;46.20;100588.16;5115309;27;20431;-69
2022/12/23 06:02:49;;;;;;;25.93;13.67;;;;;;;19.72;48.07;100585.34;5114044;27;20436;-69
2022/12/23 06:05:14;;;;;;;27.17;14.33;;;;;;;19.36;48.53;100575.72;5113942;27;20084;-69
2022/12/23 06:07:40;;;;;;;25.17;13.40;;;;;;;20.56;46.42;100570.28;5113529;27;20023;-69
2022/12/23 06:10:08;;;;;;;23.73;12.83;;;;;;;20.41;46.04;100575.50;5133557;27;20063;-69
2022/12/23 06:12:33;;;;;;;27.53;13.73;;;;;;;20.71;46.08;100561.50;5114378;27;20019;-69
2022/12/23 06:14:58;;;;;;;25.07;14.13;;;;;;;20.46;46.41;100568.16;5113829;27;20106;-69
2022/12/23 06:17:24;;;;;;;25.33;13.97;;;;;;;20.61;45.86;100565.59;5115016;27;20054;-69
2022/12/23 06:19:49;;;;;;;28.77;14.73;;;;;;;20.46;45.81;100569.97;5114459;27;20023;-69
2022/12/23 06:22:15;;;;;;;26.00;13.17;;;;;;;20.82;45.32;100575.00;5114192;27;20027;-69
2022/12/23 06:24:40;;;;;;;22.53;14.13;;;;;;;20.51;45.86;100579.38;5114659;27;20478;-69
2022/12/23 06:27:05;;;;;;;31.03;16.17;;;;;;;20.77;45.88;100586.84;5112394;27;20043;-69
2022/12/23 06:29:31;;;;;;;25.57;14.23;;;;;;;20.60;45.85;100593.91;5112106;27;20367;-69
2022/12/23 06:31:56;;;;;;;28.77;14.60;;;;;;;20.74;46.11;100601.16;5114257;27;20657;-69
2022/12/23 06:34:22;;;;;;;27.73;14.87;;;;;;;20.98;45.46;100598.06;5112986;27;20057;-69
2022/12/23 06:36:48;;;;;;;23.93;13.03;;;;;;;20.43;46.31;100597.53;5132417;27;20019;-69
2022/12/23 06:39:13;;;;;;;26.70;15.10;;;;;;;20.58;45.89;100608.22;5127963;27;20046;-69
2022/12/23 06:41:38;;;;;;;27.60;13.63;;;;;;;20.70;45.64;100612.03;5133775;27;20096;-69
2022/12/23 06:44:04;;;;;;;48.30;15.30;;;;;;;20.75;45.11;100613.50;5128816;27;20027;-69
2022/12/23 06:46:29;;;;;;;30.77;14.83;;;;;;;20.93;45.13;100598.31;5112180;27;20114;-69
2022/12/23 06:48:55;;;;;;;39.03;14.30;;;;;;;20.61;45.04;100605.41;5131239;27;20034;-69
2022/12/23 06:51:20;;;;;;;28.80;13.83;;;;;;;20.57;45.95;100611.84;5112986;27;20084;-69
2022/12/23 06:53:45;;;;;;;27.83;14.27;;;;;;;20.43;46.07;100607.25;5134021;27;20023;-69
2022/12/23 06:56:11;;;;;;;26.83;15.37;;;;;;;20.48;45.85;100602.56;5111831;27;20027;-69
2022/12/23 06:58:36;;;;;;;30.13;15.43;;;;;;;20.66;45.32;100611.31;5124536;27;20034;-69
2022/12/23 07:01:02;;;;;;;24.50;14.63;;;;;;;20.61;46.22;100613.38;5131092;27;20029;-69
2022/12/23 07:03:27;;;;;;;24.87;14.90;;;;;;;20.91;45.41;100620.56;5106328;28;20035;-69
2022/12/23 07:05:53;;;;;;;25.97;15.33;;;;;;;20.47;45.60;100614.13;5108366;28;20110;-70
2022/12/23 07:08:18;;;;;;;24.47;13.40;;;;;;;20.12;46.19;100633.66;5108522;28;21640;-70
2022/12/23 07:10:44;;;;;;;22.33;12.43;;;;;;;19.76;46.74;100631.13;5108364;28;20372;-70
2022/12/23 07:13:10;;;;;;;28.00;12.40;;;;;;;19.46;48.10;100643.22;5110181;28;20411;-69
2022/12/23 07:15:37;;;;;;;25.63;10.90;;;;;;;18.89;49.86;100646.00;5110349;28;20366;-69
2022/12/23 07:18:02;;;;;;;24.30;11.00;;;;;;;19.05;49.43;100640.81;5098269;27;20269;-69
2022/12/23 07:20:27;;;;;;;27.67;12.23;;;;;;;19.54;48.20;100623.44;5108200;28;20028;-69
2022/12/23 07:22:54;;;;;;;31.07;12.50;;;;;;;19.67;48.07;100625.38;5109706;28;20386;-69
2022/12/23 07:25:19;;;;;;;28.13;11.37;;;;;;;19.54;48.29;100618.13;5102975;28;20070;-69
2022/12/23 07:27:45;;;;;;;36.37;12.63;;;;;;;19.21;48.04;100622.38;5109462;27;20061;-69
2022/12/23 07:30:11;;;;;;;34.07;12.20;;;;;;;19.37;48.77;100614.53;5109515;28;20069;-70
2022/12/23 07:32:36;;;;;;;29.70;11.67;;;;;;;19.65;47.80;100618.44;5108753;28;20032;-69
2022/12/23 07:35:01;;;;;;;30.30;11.17;;;;;;;19.51;48.06;100621.78;5105598;28;20038;-69
2022/12/23 07:37:27;;;;;;;31.57;12.80;;;;;;;20.03;46.92;100612.97;5108058;27;20039;-70
2022/12/23 07:39:52;;;;;;;32.70;13.00;;;;;;;19.97;46.86;100608.81;5108377;27;20391;-70
2022/12/23 07:42:17;;;;;;;42.67;13.53;;;;;;;19.26;48.59;100611.53;5109439;28;20352;-70
2022/12/23 07:44:43;;;;;;;27.67;11.93;;;;;;;19.67;47.69;100611.25;5110341;28;20031;-70
2022/12/23 07:47:08;;;;;;;37.63;13.27;;;;;;;19.22;48.86;100609.97;5108067;28;20039;-70
2022/12/23 07:49:34;;;;;;;39.10;13.33;;;;;;;19.15;48.65;100604.13;5107273;28;20476;-70
2022/12/23 07:51:59;;;;;;;35.70;13.00;;;;;;;19.50;48.33;100605.00;5109532;28;20126;-70
2022/12/23 07:54:24;;;;;;;45.80;13.17;;;;;;;19.83;47.51;100598.94;5109362;28;20034;-70
2022/12/23 07:56:50;;;;;;;43.37;15.50;;;;;;;19.92;46.77;100588.78;5109234;28;20042;-70
2022/12/23 07:59:15;;;;;;;43.07;14.37;;;;;;;19.82;47.23;100589.28;5107272;28;20024;-70
2022/12/23 08:01:40;;;;;;;39.30;14.47;;;;;;;18.95;49.09;100594.53;5110857;28;20011;-70
2022/12/23 08:04:06;;;;;;;48.00;13.63;;;;;;;19.59;48.13;100597.53;5123370;27;20092;-69
2022/12/23 08:06:34;;;;;;;40.63;12.97;;;;;;;19.55;48.07;100595.97;5110152;27;20059;-70
2022/12/23 08:08:59;;;;;;;58.33;14.47;;;;;;;19.70;48.16;100574.00;5129433;27;20051;-70
2022/12/23 08:11:25;;;;;;;45.70;13.23;;;;;;;19.87;47.70;100578.41;5109734;27;20126;-69
2022/12/23 08:13:51;;;;;;;51.47;16.60;;;;;;;19.55;47.98;100582.72;5112078;27;20055;-70
2022/12/23 08:16:17;;;;;;;39.43;14.77;;;;;;;19.63;48.23;100568.13;5127818;27;20096;-70
2022/12/23 08:18:43;;;;;;;45.00;14.37;;;;;;;19.73;47.76;100573.81;5111032;27;20023;-70
2022/12/23 08:21:14;;;;;;;62.03;14.10;;;;;;;19.66;47.95;100561.81;5112983;27;20091;-70
2022/12/23 08:23:40;;;;;;;38.27;12.10;;;;;;;19.74;47.37;100559.63;5101550;27;20033;-70
2022/12/23 08:26:10;;;;;;;43.47;17.53;;;;;;;19.45;48.51;100564.66;5116367;27;20224;-70
2022/12/23 08:28:38;;;;;;;38.60;17.60;;;;;;;18.86;49.64;100566.66;5111445;27;20034;-70
2022/12/23 08:31:13;;;;;;;36.43;17.53;;;;;;;19.08;49.56;100571.81;5110822;27;20019;-70
2022/12/23 08:33:40;;;;;;;46.37;20.97;;;;;;;19.81;47.64;100562.81;5112615;27;20363;-70
2022/12/23 08:36:08;;;;;;;46.93;16.50;;;;;;;19.88;46.94;100556.28;5126575;27;20019;-70
2022/12/23 08:38:35;;;;;;;57.93;35.00;;;;;;;20.07;47.00;100548.19;5111406;27;20382;-70
2022/12/23 08:41:00;;;;;;;38.83;16.70;;;;;;;19.73;47.36;100549.94;5112506;27;20019;-70
2022/12/23 08:43:26;;;;;;;35.90;15.93;;;;;;;19.89;47.17;100551.81;5113228;28;20501;-70
2022/12/23 08:45:51;;;;;;;41.37;19.43;;;;;;;19.78;47.63;100539.97;5110531;28;20097;-69
2022/12/23 08:48:17;;;;;;;36.50;20.80;;;;;;;18.81;49.28;100547.53;5110575;28;20023;-70
2022/12/23 08:50:45;;;;;;;36.90;18.07;;;;;;;19.61;48.17;100547.94;5131559;27;20383;-70
2022/12/23 08:53:11;;;;;;;37.43;24.40;;;;;;;19.47;48.40;100536.25;5130735;27;20106;-70
2022/12/23 08:55:41;;;;;;;31.70;16.33;;;;;;;19.55;48.04;100542.94;5127287;27;20140;-70
2022/12/23 08:58:07;;;;;;;32.40;17.47;;;;;;;19.60;48.22;100546.22;5109194;28;20394;-70
2022/12/23 09:00:34;;;;;;;33.10;17.60;;;;;;;19.55;48.28;100538.53;5127751;28;20617;-70
2022/12/23 09:03:00;;;;;;;44.80;31.00;;;;;;;19.11;49.00;100539.00;5127609;27;20183;-70
2022/12/23 09:05:25;;;;;;;32.97;16.27;;;;;;;19.61;48.62;100534.69;5128847;28;20098;-70
2022/12/23 09:07:50;;;;;;;37.03;25.03;;;;;;;19.63;48.13;100531.03;5128572;28;20167;-70
2022/12/23 09:10:16;;;;;;;46.70;31.40;;;;;;;19.52;47.90;100524.56;5128570;28;20059;-70
2022/12/23 09:12:41;;;;;;;37.30;24.83;;;;;;;19.99;47.18;100522.06;5128818;27;20027;-70
2022/12/23 09:15:07;;;;;;;27.83;15.17;;;;;;;20.21;46.93;100509.41;5110421;28;20031;-70
2022/12/23 09:17:33;;;;;;;38.40;20.37;;;;;;;19.97;47.17;100507.16;5111046;28;20023;-70
2022/12/23 09:19:58;;;;;;;42.77;23.43;;;;;;;20.02;47.00;100505.13;5111723;28;20019;-70
2022/12/23 09:22:23;;;;;;;56.90;34.30;;;;;;;19.85;47.39;100513.13;5110242;28;20478;-70
2022/12/23 09:24:49;;;;;;;34.27;11.70;;;;;;;19.92;47.70;100514.50;5108553;28;20115;-70
2022/12/23 09:27:14;;;;;;;37.70;9.93;;;;;;;18.94;49.70;100523.97;5109258;27;20031;-70
2022/12/23 09:29:40;;;;;;;49.30;14.43;;;;;;;19.42;49.44;100516.25;5111001;28;20103;-70
2022/12/23 09:32:05;;;;;;;45.60;13.30;;;;;;;19.85;47.68;100515.78;5131941;27;20076;-70
2022/12/23 09:34:31;;;;;;;61.03;23.10;;;;;;;19.50;48.67;100509.59;5134793;27;20042;-70
2022/12/23 09:36:56;;;;;;;70.20;20.70;;;;;;;19.29;49.22;100502.78;5113701;27;20038;-70
2022/12/23 09:39:22;;;;;;;88.27;15.47;;;;;;;19.98;47.80;100498.28;5132426;27;20031;-70
2022/12/23 09:42:17;;;;;;;116.60;24.90;;;;;;;20.10;47.48;100481.69;5134108;27;20023;-70
2022/12/23 09:45:04;;;;;;;122.30;17.17;;;;;;;19.83;48.04;100469.00;5105795;28;20052;-70
2022/12/23 09:47:32;;;;;;;121.77;23.70;;;;;;;19.69;48.48;100466.22;5109271;27;20472;-70
2022/12/23 09:50:02;;;;;;;109.53;34.77;;;;;;;19.63;48.34;100461.22;5131212;27;20031;-70
2022/12/23 09:52:39;;;;;;;78.77;23.33;;;;;;;19.76;48.17;100464.94;5130780;27;20436;-70
2022/12/23 09:55:08;;;;;;;56.87;19.53;;;;;;;18.98;50.42;100460.16;5132310;27;20023;-70
2022/12/23 09:57:59;;;;;;;76.67;21.13;;;;;;;19.04;50.67;100459.00;5113916;27;20430;-70
2022/12/23 10:00:31;;;;;;;88.03;23.67;;;;;;;18.99;49.83;100458.38;5111022;27;20055;-70
2022/12/23 10:03:03;;;;;;;107.90;23.47;;;;;;;19.86;48.54;100460.00;5127403;27;20510;-70
2022/12/23 10:06:06;;;;;;;102.13;24.27;;;;;;;19.18;49.98;100462.72;5133452;27;20094;-70
2022/12/23 10:08:44;;;;;;;123.60;24.45;;;;;;;19.38;49.59;100451.94;5127287;27;20019;-70
2022/12/23 10:11:24;;;;;;;84.73;23.20;;;;;;;19.11;50.34;100447.16;5109281;27;20047;-70
2022/12/23 10:14:00;;;;;;;101.37;23.90;;;;;;;19.28;49.60;100448.06;5115051;27;20031;-70
2022/12/23 10:16:34;;;;;;;100.17;27.13;;;;;;;19.60;48.86;100448.16;5124200;27;20164;-70
2022/12/23 10:19:33;;;;;;;84.57;25.27;;;;;;;19.62;48.80;100446.28;5105529;27;20402;-70
2022/12/23 10:22:05;;;;;;;91.90;23.63;;;;;;;19.78;48.46;100444.50;5113806;27;20039;-70
2022/12/23 10:24:38;;;;;;;93.53;25.57;;;;;;;19.44;49.13;100438.38;5132222;27;20031;-70
2022/12/23 10:27:33;;;;;;;96.30;23.90;;;;;;;20.10;47.70;100435.72;5114147;27;20406;-70
2022/12/23 10:30:20;;;;;;;78.70;27.40;;;;;;;19.99;47.94;100431.03;5121622;27;20121;-70
2022/12/23 10:33:02;;;;;;;79.40;25.73;;;;;;;20.03;47.57;100429.91;5132236;27;20085;-70
2022/12/23 10:35:49;;;;;;;89.60;25.48;;;;;;;20.48;46.95;100430.91;5113116;27;20050;-70
2022/12/23 10:38:40;;;;;;;73.67;23.60;;;;;;;20.42;46.51;100425.94;5114090;27;20041;-70
2022/12/23 10:41:31;;;;;;;60.57;23.83;;;;;;;19.88;47.96;100422.78;5132857;27;20030;-70
2022/12/23 10:44:25;;;;;;;77.80;22.47;;;;;;;19.92;48.19;100419.03;5114257;27;20121;-70
2022/12/23 10:47:36;;;;;;;66.73;22.80;;;;;;;20.10;47.61;100418.03;5132683;27;20041;-70
2022/12/23 10:50:24;;;;;;;56.00;22.60;;;;;;;20.43;46.66;100409.06;5115270;27;20034;-69
2022/12/23 10:52:51;;;;;;;56.33;20.40;;;;;;;20.21;46.91;100405.91;5132622;27;20059;-70
2022/12/23 10:55:32;;;;;;;51.57;22.50;;;;;;;20.60;46.33;100401.91;5111744;27;20039;-70
2022/12/23 10:58:23;;;;;;;57.63;22.87;;;;;;;19.60;48.82;100419.81;5113871;27;20495;-69
2022/12/23 11:00:59;;;;;;;52.67;22.17;;;;;;;19.14;50.19;100417.00;5113820;27;20145;-70
2022/12/23 11:03:30;;;;;;;59.50;22.87;;;;;;;19.08;50.28;100412.00;5130009;27;20046;-70
2022/12/23 11:05:57;;;;;;;57.57;23.17;;;;;;;19.38;49.84;100404.22;5114769;27;20070;-70
2022/12/23 11:08:25;;;;;;;57.03;24.30;;;;;;;18.76;51.49;100396.81;5113870;27;20541;-70
2022/12/23 11:10:51;;;;;;;62.50;24.73;;;;;;;19.77;48.33;100389.75;5113577;27;20044;-69
2022/12/23 11:13:31;;;;;;;61.70;26.67;;;;;;;20.01;47.99;100381.38;5131583;27;20084;-69
2022/12/23 11:16:16;;;;;;;64.93;28.20;;;;;;;19.21;49.62;100361.91;5131173;27;20027;-69
2022/12/23 11:19:03;;;;;;;73.47;30.07;;;;;;;19.86;48.66;100350.44;5101030;27;20628;-69
2022/12/23 11:21:31;;;;;;;57.33;25.17;;;;;;;19.74;48.17;100330.72;5113920;27;20106;-70
2022/12/23 11:24:16;;;;;;;64.70;27.37;;;;;;;18.95;50.56;100316.47;5131720;27;20088;-70
2022/12/23 11:26:44;;;;;;;70.27;28.70;;;;;;;19.08;50.19;100317.53;5114477;27;20063;-69
2022/12/23 11:29:18;;;;;;;74.57;27.50;;;;;;;19.49;49.04;100306.47;5113284;27;20528;-69
2022/12/23 11:31:44;;;;;;;72.57;27.73;;;;;;;18.91;50.51;100301.69;5114302;27;20027;-70
2022/12/23 11:34:19;;;;;;;70.93;26.77;;;;;;;18.65;50.86;100303.88;5112484;27;20049;-69
2022/12/23 11:36:54;;;;;;;65.90;25.83;;;;;;;19.03;51.32;100297.50;5129696;27;20091;-69
2022/12/23 11:39:25;;;;;;;68.17;27.27;;;;;;;19.26;50.55;100283.03;5112957;27;20062;-69
2022/12/23 11:42:18;;;;;;;65.90;27.23;;;;;;;18.28;51.99;100295.19;5131077;27;20027;-69
2022/12/23 11:44:50;;;;;;;54.05;23.85;;;;;;;18.51;51.68;100285.22;5120298;27;20062;-69
2022/12/23 11:47:24;;;;;;;55.63;25.40;;;;;;;19.03;50.74;100271.91;5113977;27;20045;-69
2022/12/23 11:49:54;;;;;;;48.67;22.17;;;;;;;18.97;50.64;100277.50;5113255;27;20033;-69